sensor_id;sensor_type;location;lat;lon;timestamp;temperature;humidity
18682;DHT22;9471;51.168;4.154;2022-07-29T00:02:03;21.10;99.90
18682;DHT22;9471;51.168;4.154;2022-07-29T00:04:34;21.00;99.90
18682;DHT22;9471;51.168;4.154;2022-07-29T00:07:01;21.00;99.90
18682;DHT22;9471;51.168;4.154;2022-07-29T00:09:28;20.90;99.90
18682;DHT22;9471;51.168;4.154;2022-07-29T00:12:00;20.80;99.90
18682;DHT22;9471;51.168;4.154;2022-07-29T00:14:27;20.70;99.90
18682;DHT22;9471;51.168;4.154;2022-07-29T00:16:55;20.80;99.90
18682;DHT22;9471;51.168;4.154;2022-07-29T00:19:21;20.80;99.90
18682;DHT22;9471;51.168;4.154;2022-07-29T00:21:50;20.70;99.90
18682;DHT22;9471;51.168;4.154;2022-07-29T00:24:17;20.80;99.90
18682;DHT22;9471;51.168;4.154;2022-07-29T00:26:44;20.60;99.90
18682;DHT22;9471;51.168;4.154;2022-07-29T00:29:13;20.70;99.90
18682;DHT22;9471;51.168;4.154;2022-07-29T00:31:40;20.60;99.90
18682;DHT22;9471;51.168;4.154;2022-07-29T00:34:07;20.60;99.90
18682;DHT22;9471;51.168;4.154;2022-07-29T00:36:56;20.70;99.90
18682;DHT22;9471;51.168;4.154;2022-07-29T00:39:22;20.70;99.90
18682;DHT22;9471;51.168;4.154;2022-07-29T00:41:49;20.70;99.90
18682;DHT22;9471;51.168;4.154;2022-07-29T00:44:16;20.60;99.90
18682;DHT22;9471;51.168;4.154;2022-07-29T00:46:43;20.60;99.90
18682;DHT22;9471;51.168;4.154;2022-07-29T00:49:10;20.60;99.90
18682;DHT22;9471;51.168;4.154;2022-07-29T00:51:37;20.70;99.90
18682;DHT22;9471;51.168;4.154;2022-07-29T00:54:06;20.70;99.90
18682;DHT22;9471;51.168;4.154;2022-07-29T00:56:34;20.70;99.90
18682;DHT22;9471;51.168;4.154;2022-07-29T00:59:01;20.70;99.90
18682;DHT22;9471;51.168;4.154;2022-07-29T01:01:28;20.70;99.90
18682;DHT22;9471;51.168;4.154;2022-07-29T01:03:55;20.60;99.90
18682;DHT22;9471;51.168;4.154;2022-07-29T01:06:22;20.60;99.90
18682;DHT22;9471;51.168;4.154;2022-07-29T01:08:50;20.60;99.90
18682;DHT22;9471;51.168;4.154;2022-07-29T01:11:19;20.60;99.90
18682;DHT22;9471;51.168;4.154;2022-07-29T01:13:47;20.50;99.90
18682;DHT22;9471;51.168;4.154;2022-07-29T01:16:21;20.50;99.90
18682;DHT22;9471;51.168;4.154;2022-07-29T01:18:53;20.50;99.90
18682;DHT22;9471;51.168;4.154;2022-07-29T01:21:34;20.50;99.90
18682;DHT22;9471;51.168;4.154;2022-07-29T01:24:14;20.60;99.90
18682;DHT22;9471;51.168;4.154;2022-07-29T01:26:49;20.60;99.90
18682;DHT22;9471;51.168;4.154;2022-07-29T01:29:25;20.60;99.90
18682;DHT22;9471;51.168;4.154;2022-07-29T01:31:57;20.60;99.90
18682;DHT22;9471;51.168;4.154;2022-07-29T01:34:31;20.60;99.90
18682;DHT22;9471;51.168;4.154;2022-07-29T01:37:06;20.50;99.90
18682;DHT22;9471;51.168;4.154;2022-07-29T01:39:36;20.40;99.90
18682;DHT22;9471;51.168;4.154;2022-07-29T01:42:10;20.30;99.90
18682;DHT22;9471;51.168;4.154;2022-07-29T01:44:47;20.30;99.90
18682;DHT22;9471;51.168;4.154;2022-07-29T01:47:19;20.40;99.90
18682;DHT22;9471;51.168;4.154;2022-07-29T01:49:50;20.40;99.90
18682;DHT22;9471;51.168;4.154;2022-07-29T01:52:21;20.40;99.90
18682;DHT22;9471;51.168;4.154;2022-07-29T01:54:53;20.50;99.90
18682;DHT22;9471;51.168;4.154;2022-07-29T01:57:26;20.40;99.90
18682;DHT22;9471;51.168;4.154;2022-07-29T01:59:56;20.40;99.90
18682;DHT22;9471;51.168;4.154;2022-07-29T02:02:24;20.30;99.90
18682;DHT22;9471;51.168;4.154;2022-07-29T02:04:53;20.30;99.90
18682;DHT22;9471;51.168;4.154;2022-07-29T02:07:21;20.30;99.90
18682;DHT22;9471;51.168;4.154;2022-07-29T02:09:50;20.10;99.90
18682;DHT22;9471;51.168;4.154;2022-07-29T02:12:18;20.10;99.90
18682;DHT22;9471;51.168;4.154;2022-07-29T02:14:48;20.10;99.90
18682;DHT22;9471;51.168;4.154;2022-07-29T02:17:22;20.10;99.90
18682;DHT22;9471;51.168;4.154;2022-07-29T02:19:50;20.10;99.90
18682;DHT22;9471;51.168;4.154;2022-07-29T02:22:18;19.90;99.90
18682;DHT22;9471;51.168;4.154;2022-07-29T02:24:46;20.00;99.90
18682;DHT22;9471;51.168;4.154;2022-07-29T02:27:14;20.00;99.90
18682;DHT22;9471;51.168;4.154;2022-07-29T02:29:41;20.00;99.90
18682;DHT22;9471;51.168;4.154;2022-07-29T02:32:11;19.90;99.90
18682;DHT22;9471;51.168;4.154;2022-07-29T02:34:41;19.80;99.90
18682;DHT22;9471;51.168;4.154;2022-07-29T02:37:10;19.70;99.90
18682;DHT22;9471;51.168;4.154;2022-07-29T02:39:41;19.60;99.90
18682;DHT22;9471;51.168;4.154;2022-07-29T02:42:14;19.70;99.90
18682;DHT22;9471;51.168;4.154;2022-07-29T02:44:42;19.70;99.90
18682;DHT22;9471;51.168;4.154;2022-07-29T02:47:18;19.70;99.90
18682;DHT22;9471;51.168;4.154;2022-07-29T02:49:53;19.70;99.90
18682;DHT22;9471;51.168;4.154;2022-07-29T02:52:24;19.60;99.90
18682;DHT22;9471;51.168;4.154;2022-07-29T02:54:55;19.60;99.90
18682;DHT22;9471;51.168;4.154;2022-07-29T02:57:30;19.50;99.90
18682;DHT22;9471;51.168;4.154;2022-07-29T03:00:05;19.50;99.90
18682;DHT22;9471;51.168;4.154;2022-07-29T03:02:36;19.50;99.90
18682;DHT22;9471;51.168;4.154;2022-07-29T03:05:08;19.30;99.90
18682;DHT22;9471;51.168;4.154;2022-07-29T03:07:36;19.20;99.90
18682;DHT22;9471;51.168;4.154;2022-07-29T03:10:05;19.20;99.90
18682;DHT22;9471;51.168;4.154;2022-07-29T03:12:36;19.20;99.90
18682;DHT22;9471;51.168;4.154;2022-07-29T03:15:04;19.20;99.90
18682;DHT22;9471;51.168;4.154;2022-07-29T03:17:33;19.20;99.90
18682;DHT22;9471;51.168;4.154;2022-07-29T03:20:00;19.20;99.90
18682;DHT22;9471;51.168;4.154;2022-07-29T03:22:29;19.10;99.90
18682;DHT22;9471;51.168;4.154;2022-07-29T03:24:56;19.10;99.90
18682;DHT22;9471;51.168;4.154;2022-07-29T03:27:23;19.10;99.90
18682;DHT22;9471;51.168;4.154;2022-07-29T03:29:50;19.10;99.90
18682;DHT22;9471;51.168;4.154;2022-07-29T03:32:17;19.10;99.90
18682;DHT22;9471;51.168;4.154;2022-07-29T03:34:44;19.00;99.90
18682;DHT22;9471;51.168;4.154;2022-07-29T03:37:11;19.00;99.90
18682;DHT22;9471;51.168;4.154;2022-07-29T03:39:41;19.00;99.90
18682;DHT22;9471;51.168;4.154;2022-07-29T03:42:12;19.00;99.90
18682;DHT22;9471;51.168;4.154;2022-07-29T03:44:42;19.00;99.90
18682;DHT22;9471;51.168;4.154;2022-07-29T03:47:10;18.90;99.90
18682;DHT22;9471;51.168;4.154;2022-07-29T03:49:39;18.90;99.90
18682;DHT22;9471;51.168;4.154;2022-07-29T03:52:07;19.00;99.90
18682;DHT22;9471;51.168;4.154;2022-07-29T03:54:34;18.90;99.90
18682;DHT22;9471;51.168;4.154;2022-07-29T03:57:04;18.90;99.90
18682;DHT22;9471;51.168;4.154;2022-07-29T03:59:32;18.90;99.90
18682;DHT22;9471;51.168;4.154;2022-07-29T04:02:01;18.90;99.90
18682;DHT22;9471;51.168;4.154;2022-07-29T04:04:29;18.80;99.90
18682;DHT22;9471;51.168;4.154;2022-07-29T04:06:58;18.80;99.90
18682;DHT22;9471;51.168;4.154;2022-07-29T04:09:25;18.80;99.90
18682;DHT22;9471;51.168;4.154;2022-07-29T04:11:53;18.80;99.90
18682;DHT22;9471;51.168;4.154;2022-07-29T04:14:24;18.80;99.90
18682;DHT22;9471;51.168;4.154;2022-07-29T04:16:50;18.70;99.90
18682;DHT22;9471;51.168;4.154;2022-07-29T04:19:18;18.80;99.90
18682;DHT22;9471;51.168;4.154;2022-07-29T04:21:45;18.70;99.90
18682;DHT22;9471;51.168;4.154;2022-07-29T04:24:12;18.60;99.90
18682;DHT22;9471;51.168;4.154;2022-07-29T04:26:39;18.70;99.90
18682;DHT22;9471;51.168;4.154;2022-07-29T04:29:06;18.70;99.90
18682;DHT22;9471;51.168;4.154;2022-07-29T04:31:34;18.70;99.90
18682;DHT22;9471;51.168;4.154;2022-07-29T04:34:01;18.60;99.90
18682;DHT22;9471;51.168;4.154;2022-07-29T04:36:28;18.50;99.90
18682;DHT22;9471;51.168;4.154;2022-07-29T04:38:55;18.50;99.90
18682;DHT22;9471;51.168;4.154;2022-07-29T04:41:22;18.50;99.90
18682;DHT22;9471;51.168;4.154;2022-07-29T04:43:49;18.50;99.90
18682;DHT22;9471;51.168;4.154;2022-07-29T04:46:16;18.50;99.90
18682;DHT22;9471;51.168;4.154;2022-07-29T04:48:45;18.50;99.90
18682;DHT22;9471;51.168;4.154;2022-07-29T04:51:12;18.50;99.90
18682;DHT22;9471;51.168;4.154;2022-07-29T04:53:39;18.50;99.90
18682;DHT22;9471;51.168;4.154;2022-07-29T04:56:06;18.40;99.90
18682;DHT22;9471;51.168;4.154;2022-07-29T04:58:34;18.40;99.90
18682;DHT22;9471;51.168;4.154;2022-07-29T05:01:01;18.30;99.90
18682;DHT22;9471;51.168;4.154;2022-07-29T05:03:28;18.30;99.90
18682;DHT22;9471;51.168;4.154;2022-07-29T05:05:56;18.20;99.90
18682;DHT22;9471;51.168;4.154;2022-07-29T05:08:23;18.30;99.90
18682;DHT22;9471;51.168;4.154;2022-07-29T05:10:50;18.30;99.90
18682;DHT22;9471;51.168;4.154;2022-07-29T05:13:17;18.30;99.90
18682;DHT22;9471;51.168;4.154;2022-07-29T05:15:44;18.20;99.90
18682;DHT22;9471;51.168;4.154;2022-07-29T05:18:11;18.20;99.90
18682;DHT22;9471;51.168;4.154;2022-07-29T05:20:39;18.10;99.90
18682;DHT22;9471;51.168;4.154;2022-07-29T05:23:08;18.20;99.90
18682;DHT22;9471;51.168;4.154;2022-07-29T05:25:38;18.20;99.90
18682;DHT22;9471;51.168;4.154;2022-07-29T05:28:05;18.30;99.90
18682;DHT22;9471;51.168;4.154;2022-07-29T05:30:32;18.30;99.90
18682;DHT22;9471;51.168;4.154;2022-07-29T05:32:59;18.30;99.90
18682;DHT22;9471;51.168;4.154;2022-07-29T05:35:27;18.30;99.90
18682;DHT22;9471;51.168;4.154;2022-07-29T05:37:56;18.40;99.90
18682;DHT22;9471;51.168;4.154;2022-07-29T05:40:24;18.40;99.90
18682;DHT22;9471;51.168;4.154;2022-07-29T05:42:51;18.50;99.90
18682;DHT22;9471;51.168;4.154;2022-07-29T05:45:18;18.60;99.90
18682;DHT22;9471;51.168;4.154;2022-07-29T05:47:45;18.60;99.90
18682;DHT22;9471;51.168;4.154;2022-07-29T05:50:12;18.60;99.90
18682;DHT22;9471;51.168;4.154;2022-07-29T05:52:39;18.70;99.90
18682;DHT22;9471;51.168;4.154;2022-07-29T05:55:07;18.70;99.90
18682;DHT22;9471;51.168;4.154;2022-07-29T05:57:35;18.80;99.90
18682;DHT22;9471;51.168;4.154;2022-07-29T06:00:03;18.90;99.90
18682;DHT22;9471;51.168;4.154;2022-07-29T06:02:30;18.90;99.90
18682;DHT22;9471;51.168;4.154;2022-07-29T06:04:57;19.00;99.90
18682;DHT22;9471;51.168;4.154;2022-07-29T06:07:24;19.00;99.90
18682;DHT22;9471;51.168;4.154;2022-07-29T06:09:51;18.90;99.90
18682;DHT22;9471;51.168;4.154;2022-07-29T06:12:18;18.90;99.90
18682;DHT22;9471;51.168;4.154;2022-07-29T06:14:46;18.80;99.90
18682;DHT22;9471;51.168;4.154;2022-07-29T06:17:13;18.80;99.90
18682;DHT22;9471;51.168;4.154;2022-07-29T06:19:40;18.90;99.90
18682;DHT22;9471;51.168;4.154;2022-07-29T06:22:07;19.00;99.90
18682;DHT22;9471;51.168;4.154;2022-07-29T06:24:36;19.10;99.90
18682;DHT22;9471;51.168;4.154;2022-07-29T06:27:06;19.10;99.90
18682;DHT22;9471;51.168;4.154;2022-07-29T06:29:34;19.20;99.90
18682;DHT22;9471;51.168;4.154;2022-07-29T06:32:02;19.10;99.90
18682;DHT22;9471;51.168;4.154;2022-07-29T06:34:29;19.20;99.90
18682;DHT22;9471;51.168;4.154;2022-07-29T06:36:56;19.40;99.90
18682;DHT22;9471;51.168;4.154;2022-07-29T06:39:23;19.50;99.90
18682;DHT22;9471;51.168;4.154;2022-07-29T06:41:50;19.70;99.90
18682;DHT22;9471;51.168;4.154;2022-07-29T06:44:18;19.80;99.90
18682;DHT22;9471;51.168;4.154;2022-07-29T06:46:45;19.90;99.90
18682;DHT22;9471;51.168;4.154;2022-07-29T06:49:16;19.90;99.90
18682;DHT22;9471;51.168;4.154;2022-07-29T06:51:42;19.90;99.90
18682;DHT22;9471;51.168;4.154;2022-07-29T06:54:09;19.90;99.90
18682;DHT22;9471;51.168;4.154;2022-07-29T06:56:37;20.00;99.90
18682;DHT22;9471;51.168;4.154;2022-07-29T06:59:08;20.20;99.90
18682;DHT22;9471;51.168;4.154;2022-07-29T07:01:36;20.40;99.90
18682;DHT22;9471;51.168;4.154;2022-07-29T07:04:03;20.40;99.90
18682;DHT22;9471;51.168;4.154;2022-07-29T07:06:36;20.40;99.90
18682;DHT22;9471;51.168;4.154;2022-07-29T07:09:04;20.50;99.90
18682;DHT22;9471;51.168;4.154;2022-07-29T07:11:34;20.60;99.90
18682;DHT22;9471;51.168;4.154;2022-07-29T07:14:01;20.70;99.90
18682;DHT22;9471;51.168;4.154;2022-07-29T07:16:28;20.80;99.90
18682;DHT22;9471;51.168;4.154;2022-07-29T07:18:55;20.90;99.90
18682;DHT22;9471;51.168;4.154;2022-07-29T07:21:22;21.10;99.90
18682;DHT22;9471;51.168;4.154;2022-07-29T07:23:50;21.30;99.90
18682;DHT22;9471;51.168;4.154;2022-07-29T07:26:17;21.50;99.90
18682;DHT22;9471;51.168;4.154;2022-07-29T07:28:44;21.60;99.90
18682;DHT22;9471;51.168;4.154;2022-07-29T07:31:11;21.60;99.90
18682;DHT22;9471;51.168;4.154;2022-07-29T07:33:39;21.60;99.90
18682;DHT22;9471;51.168;4.154;2022-07-29T07:36:06;21.90;99.90
18682;DHT22;9471;51.168;4.154;2022-07-29T07:38:34;21.90;99.90
18682;DHT22;9471;51.168;4.154;2022-07-29T07:41:02;22.10;99.90
18682;DHT22;9471;51.168;4.154;2022-07-29T07:43:29;22.20;99.90
18682;DHT22;9471;51.168;4.154;2022-07-29T07:45:57;21.90;99.90
18682;DHT22;9471;51.168;4.154;2022-07-29T07:48:24;22.00;99.90
18682;DHT22;9471;51.168;4.154;2022-07-29T07:50:50;22.10;99.90
18682;DHT22;9471;51.168;4.154;2022-07-29T07:53:17;22.10;99.90
18682;DHT22;9471;51.168;4.154;2022-07-29T07:55:44;22.30;99.90
18682;DHT22;9471;51.168;4.154;2022-07-29T07:58:13;22.30;99.90
18682;DHT22;9471;51.168;4.154;2022-07-29T08:00:40;22.50;99.90
18682;DHT22;9471;51.168;4.154;2022-07-29T08:03:07;22.50;99.90
18682;DHT22;9471;51.168;4.154;2022-07-29T08:05:38;22.50;99.90
18682;DHT22;9471;51.168;4.154;2022-07-29T08:08:05;22.70;99.90
18682;DHT22;9471;51.168;4.154;2022-07-29T08:10:32;22.70;99.90
18682;DHT22;9471;51.168;4.154;2022-07-29T08:13:19;22.70;99.90
18682;DHT22;9471;51.168;4.154;2022-07-29T08:15:47;22.70;99.90
18682;DHT22;9471;51.168;4.154;2022-07-29T08:18:23;22.60;99.90
18682;DHT22;9471;51.168;4.154;2022-07-29T08:20:50;22.40;99.90
18682;DHT22;9471;51.168;4.154;2022-07-29T08:23:17;22.50;99.90
18682;DHT22;9471;51.168;4.154;2022-07-29T08:25:45;22.40;99.90
18682;DHT22;9471;51.168;4.154;2022-07-29T08:28:12;22.40;99.90
18682;DHT22;9471;51.168;4.154;2022-07-29T08:30:41;22.50;99.90
18682;DHT22;9471;51.168;4.154;2022-07-29T08:33:08;22.50;99.90
18682;DHT22;9471;51.168;4.154;2022-07-29T08:35:35;22.70;99.90
18682;DHT22;9471;51.168;4.154;2022-07-29T08:38:02;22.90;99.90
18682;DHT22;9471;51.168;4.154;2022-07-29T08:40:30;22.70;99.90
18682;DHT22;9471;51.168;4.154;2022-07-29T08:42:57;22.50;99.90
18682;DHT22;9471;51.168;4.154;2022-07-29T08:45:25;22.50;99.90
18682;DHT22;9471;51.168;4.154;2022-07-29T08:47:55;22.70;99.90
18682;DHT22;9471;51.168;4.154;2022-07-29T08:50:22;22.80;99.90
18682;DHT22;9471;51.168;4.154;2022-07-29T08:52:50;22.80;99.90
18682;DHT22;9471;51.168;4.154;2022-07-29T08:55:17;23.00;99.90
18682;DHT22;9471;51.168;4.154;2022-07-29T08:57:45;23.10;99.90
18682;DHT22;9471;51.168;4.154;2022-07-29T09:00:12;23.20;99.90
18682;DHT22;9471;51.168;4.154;2022-07-29T09:02:41;23.40;99.90
18682;DHT22;9471;51.168;4.154;2022-07-29T09:05:11;23.50;99.90
18682;DHT22;9471;51.168;4.154;2022-07-29T09:07:39;23.60;99.90
18682;DHT22;9471;51.168;4.154;2022-07-29T09:10:08;23.70;99.90
18682;DHT22;9471;51.168;4.154;2022-07-29T09:12:35;23.70;99.90
18682;DHT22;9471;51.168;4.154;2022-07-29T09:15:02;23.90;99.90
18682;DHT22;9471;51.168;4.154;2022-07-29T09:17:43;24.00;99.90
18682;DHT22;9471;51.168;4.154;2022-07-29T09:20:14;23.90;99.90
18682;DHT22;9471;51.168;4.154;2022-07-29T09:22:42;24.00;99.90
18682;DHT22;9471;51.168;4.154;2022-07-29T09:25:12;23.80;99.90
18682;DHT22;9471;51.168;4.154;2022-07-29T09:27:41;23.80;99.90
18682;DHT22;9471;51.168;4.154;2022-07-29T09:30:16;24.00;99.90
18682;DHT22;9471;51.168;4.154;2022-07-29T09:33:01;24.00;99.90
18682;DHT22;9471;51.168;4.154;2022-07-29T09:35:31;24.10;99.90
18682;DHT22;9471;51.168;4.154;2022-07-29T09:37:58;24.20;99.90
18682;DHT22;9471;51.168;4.154;2022-07-29T09:40:36;24.30;99.90
18682;DHT22;9471;51.168;4.154;2022-07-29T09:43:10;24.50;99.90
18682;DHT22;9471;51.168;4.154;2022-07-29T09:45:37;24.60;99.90
18682;DHT22;9471;51.168;4.154;2022-07-29T09:48:14;24.50;99.90
18682;DHT22;9471;51.168;4.154;2022-07-29T09:50:44;24.60;99.90
18682;DHT22;9471;51.168;4.154;2022-07-29T09:53:13;24.60;99.90
18682;DHT22;9471;51.168;4.154;2022-07-29T09:55:56;24.70;99.90
18682;DHT22;9471;51.168;4.154;2022-07-29T09:58:25;24.60;99.90
18682;DHT22;9471;51.168;4.154;2022-07-29T10:00:54;24.60;99.90
18682;DHT22;9471;51.168;4.154;2022-07-29T10:03:23;24.80;99.90
18682;DHT22;9471;51.168;4.154;2022-07-29T10:06:07;24.80;99.90
18682;DHT22;9471;51.168;4.154;2022-07-29T10:08:34;24.90;99.90
18682;DHT22;9471;51.168;4.154;2022-07-29T10:11:10;24.90;99.90
18682;DHT22;9471;51.168;4.154;2022-07-29T10:13:38;25.10;99.90
18682;DHT22;9471;51.168;4.154;2022-07-29T10:16:06;24.90;99.90
18682;DHT22;9471;51.168;4.154;2022-07-29T10:18:34;24.90;99.90
18682;DHT22;9471;51.168;4.154;2022-07-29T10:21:01;24.90;99.90
18682;DHT22;9471;51.168;4.154;2022-07-29T10:23:30;24.90;99.90
18682;DHT22;9471;51.168;4.154;2022-07-29T10:25:57;25.00;99.90
18682;DHT22;9471;51.168;4.154;2022-07-29T10:28:24;25.00;99.20
18682;DHT22;9471;51.168;4.154;2022-07-29T10:30:52;25.20;99.10
18682;DHT22;9471;51.168;4.154;2022-07-29T10:33:38;25.30;99.10
18682;DHT22;9471;51.168;4.154;2022-07-29T10:36:19;25.20;98.90
18682;DHT22;9471;51.168;4.154;2022-07-29T10:38:57;25.30;99.00
18682;DHT22;9471;51.168;4.154;2022-07-29T10:42:05;25.40;98.60
18682;DHT22;9471;51.168;4.154;2022-07-29T10:44:33;25.50;98.00
18682;DHT22;9471;51.168;4.154;2022-07-29T10:47:01;25.60;97.60
18682;DHT22;9471;51.168;4.154;2022-07-29T10:49:28;25.60;97.00
18682;DHT22;9471;51.168;4.154;2022-07-29T10:52:01;25.50;95.10
18682;DHT22;9471;51.168;4.154;2022-07-29T10:54:40;25.50;93.00
18682;DHT22;9471;51.168;4.154;2022-07-29T10:57:13;25.60;92.70
18682;DHT22;9471;51.168;4.154;2022-07-29T10:59:40;25.70;93.70
18682;DHT22;9471;51.168;4.154;2022-07-29T11:02:41;25.90;93.70
18682;DHT22;9471;51.168;4.154;2022-07-29T11:05:10;25.80;93.70
18682;DHT22;9471;51.168;4.154;2022-07-29T11:14:08;25.80;91.10
18682;DHT22;9471;51.168;4.154;2022-07-29T11:17:03;25.90;92.10
18682;DHT22;9471;51.168;4.154;2022-07-29T11:19:32;26.00;91.80
18682;DHT22;9471;51.168;4.154;2022-07-29T11:21:59;26.00;91.70
18682;DHT22;9471;51.168;4.154;2022-07-29T11:24:27;26.10;90.90
18682;DHT22;9471;51.168;4.154;2022-07-29T11:27:07;26.20;91.00
18682;DHT22;9471;51.168;4.154;2022-07-29T11:29:39;26.10;90.20
18682;DHT22;9471;51.168;4.154;2022-07-29T11:32:11;26.10;90.30
18682;DHT22;9471;51.168;4.154;2022-07-29T11:34:39;26.20;87.50
18682;DHT22;9471;51.168;4.154;2022-07-29T11:37:22;26.10;87.80
18682;DHT22;9471;51.168;4.154;2022-07-29T11:40:15;26.00;87.90
18682;DHT22;9471;51.168;4.154;2022-07-29T11:42:48;26.20;89.50
18682;DHT22;9471;51.168;4.154;2022-07-29T11:45:24;26.40;87.50
18682;DHT22;9471;51.168;4.154;2022-07-29T11:47:58;26.60;85.70
18682;DHT22;9471;51.168;4.154;2022-07-29T11:50:31;26.70;82.10
18682;DHT22;9471;51.168;4.154;2022-07-29T11:52:59;26.70;80.00
18682;DHT22;9471;51.168;4.154;2022-07-29T11:55:27;26.80;82.70
18682;DHT22;9471;51.168;4.154;2022-07-29T11:57:56;26.70;82.00
18682;DHT22;9471;51.168;4.154;2022-07-29T12:00:28;26.80;81.90
18682;DHT22;9471;51.168;4.154;2022-07-29T12:02:55;26.90;80.20
18682;DHT22;9471;51.168;4.154;2022-07-29T12:05:35;26.90;77.90
18682;DHT22;9471;51.168;4.154;2022-07-29T12:08:07;26.70;79.00
18682;DHT22;9471;51.168;4.154;2022-07-29T12:10:34;26.80;79.10
18682;DHT22;9471;51.168;4.154;2022-07-29T12:13:01;27.00;79.00
18682;DHT22;9471;51.168;4.154;2022-07-29T12:15:30;27.20;77.90
18682;DHT22;9471;51.168;4.154;2022-07-29T12:17:57;27.40;76.40
18682;DHT22;9471;51.168;4.154;2022-07-29T12:20:26;27.30;76.90
18682;DHT22;9471;51.168;4.154;2022-07-29T12:22:53;27.10;76.60
18682;DHT22;9471;51.168;4.154;2022-07-29T12:25:22;27.10;75.90
18682;DHT22;9471;51.168;4.154;2022-07-29T12:27:58;27.10;75.60
18682;DHT22;9471;51.168;4.154;2022-07-29T12:30:36;27.10;76.50
18682;DHT22;9471;51.168;4.154;2022-07-29T12:33:20;27.20;76.60
18682;DHT22;9471;51.168;4.154;2022-07-29T12:35:50;27.30;76.20
18682;DHT22;9471;51.168;4.154;2022-07-29T12:38:17;27.40;75.40
18682;DHT22;9471;51.168;4.154;2022-07-29T12:40:46;27.20;76.00
18682;DHT22;9471;51.168;4.154;2022-07-29T12:43:14;27.30;75.60
18682;DHT22;9471;51.168;4.154;2022-07-29T12:45:44;27.10;76.10
18682;DHT22;9471;51.168;4.154;2022-07-29T12:48:12;27.20;75.80
18682;DHT22;9471;51.168;4.154;2022-07-29T12:50:53;27.40;76.30
18682;DHT22;9471;51.168;4.154;2022-07-29T12:53:20;27.70;74.90
18682;DHT22;9471;51.168;4.154;2022-07-29T12:55:50;27.70;73.60
18682;DHT22;9471;51.168;4.154;2022-07-29T12:58:35;27.60;73.50
18682;DHT22;9471;51.168;4.154;2022-07-29T13:01:06;27.60;73.90
18682;DHT22;9471;51.168;4.154;2022-07-29T13:03:44;27.90;72.90
18682;DHT22;9471;51.168;4.154;2022-07-29T13:06:35;28.30;72.50
18682;DHT22;9471;51.168;4.154;2022-07-29T13:09:08;28.30;70.90
18682;DHT22;9471;51.168;4.154;2022-07-29T13:11:37;28.20;70.80
18682;DHT22;9471;51.168;4.154;2022-07-29T13:14:06;27.90;71.20
18682;DHT22;9471;51.168;4.154;2022-07-29T13:16:36;27.90;70.80
18682;DHT22;9471;51.168;4.154;2022-07-29T13:19:08;27.90;70.30
18682;DHT22;9471;51.168;4.154;2022-07-29T13:21:37;27.90;70.10
18682;DHT22;9471;51.168;4.154;2022-07-29T13:24:05;28.00;69.80
18682;DHT22;9471;51.168;4.154;2022-07-29T13:26:33;28.00;69.80
18682;DHT22;9471;51.168;4.154;2022-07-29T13:29:01;27.80;69.10
18682;DHT22;9471;51.168;4.154;2022-07-29T13:31:28;27.90;69.40
18682;DHT22;9471;51.168;4.154;2022-07-29T13:33:58;27.90;69.60
18682;DHT22;9471;51.168;4.154;2022-07-29T13:36:25;28.00;68.70
18682;DHT22;9471;51.168;4.154;2022-07-29T13:38:52;28.20;67.90
18682;DHT22;9471;51.168;4.154;2022-07-29T13:41:19;28.20;67.70
18682;DHT22;9471;51.168;4.154;2022-07-29T13:43:46;27.90;66.40
18682;DHT22;9471;51.168;4.154;2022-07-29T13:46:13;27.50;67.70
18682;DHT22;9471;51.168;4.154;2022-07-29T13:48:39;27.60;68.30
18682;DHT22;9471;51.168;4.154;2022-07-29T13:51:08;27.60;69.00
18682;DHT22;9471;51.168;4.154;2022-07-29T13:53:35;27.70;67.30
18682;DHT22;9471;51.168;4.154;2022-07-29T13:56:02;27.70;67.40
18682;DHT22;9471;51.168;4.154;2022-07-29T13:58:31;27.80;68.60
18682;DHT22;9471;51.168;4.154;2022-07-29T14:00:58;27.60;68.40
18682;DHT22;9471;51.168;4.154;2022-07-29T14:03:25;27.60;69.30
18682;DHT22;9471;51.168;4.154;2022-07-29T14:05:52;27.80;68.50
18682;DHT22;9471;51.168;4.154;2022-07-29T14:08:20;28.00;67.30
18682;DHT22;9471;51.168;4.154;2022-07-29T14:10:47;28.50;65.90
18682;DHT22;9471;51.168;4.154;2022-07-29T14:13:14;28.80;64.50
18682;DHT22;9471;51.168;4.154;2022-07-29T14:15:42;29.10;63.80
18682;DHT22;9471;51.168;4.154;2022-07-29T14:18:09;29.00;62.10
18682;DHT22;9471;51.168;4.154;2022-07-29T14:20:36;29.00;61.00
18682;DHT22;9471;51.168;4.154;2022-07-29T14:23:03;29.30;61.30
18682;DHT22;9471;51.168;4.154;2022-07-29T14:25:31;29.20;59.50
18682;DHT22;9471;51.168;4.154;2022-07-29T14:27:58;29.00;60.70
18682;DHT22;9471;51.168;4.154;2022-07-29T14:30:25;29.10;60.80
18682;DHT22;9471;51.168;4.154;2022-07-29T14:32:52;28.70;61.40
18682;DHT22;9471;51.168;4.154;2022-07-29T14:35:19;28.70;62.60
18682;DHT22;9471;51.168;4.154;2022-07-29T14:37:46;29.00;62.10
18682;DHT22;9471;51.168;4.154;2022-07-29T14:40:13;29.30;61.70
18682;DHT22;9471;51.168;4.154;2022-07-29T14:42:42;29.50;60.20
18682;DHT22;9471;51.168;4.154;2022-07-29T14:45:09;29.50;60.30
18682;DHT22;9471;51.168;4.154;2022-07-29T14:47:36;29.80;60.00
18682;DHT22;9471;51.168;4.154;2022-07-29T14:50:05;30.20;59.00
18682;DHT22;9471;51.168;4.154;2022-07-29T14:52:32;30.40;58.40
18682;DHT22;9471;51.168;4.154;2022-07-29T14:54:59;30.50;58.50
18682;DHT22;9471;51.168;4.154;2022-07-29T14:57:26;30.30;58.50
18682;DHT22;9471;51.168;4.154;2022-07-29T14:59:54;30.10;59.40
18682;DHT22;9471;51.168;4.154;2022-07-29T15:02:24;30.30;59.10
18682;DHT22;9471;51.168;4.154;2022-07-29T15:04:51;29.90;58.50
18682;DHT22;9471;51.168;4.154;2022-07-29T15:07:18;29.70;58.80
18682;DHT22;9471;51.168;4.154;2022-07-29T15:09:45;29.70;58.80
18682;DHT22;9471;51.168;4.154;2022-07-29T15:12:12;29.60;58.40
18682;DHT22;9471;51.168;4.154;2022-07-29T15:14:38;29.80;58.90
18682;DHT22;9471;51.168;4.154;2022-07-29T15:17:07;30.10;58.00
18682;DHT22;9471;51.168;4.154;2022-07-29T15:19:34;30.70;57.00
18682;DHT22;9471;51.168;4.154;2022-07-29T15:22:01;30.90;57.20
18682;DHT22;9471;51.168;4.154;2022-07-29T15:24:28;31.10;57.00
18682;DHT22;9471;51.168;4.154;2022-07-29T15:26:55;31.00;56.90
18682;DHT22;9471;51.168;4.154;2022-07-29T15:29:22;30.90;57.20
18682;DHT22;9471;51.168;4.154;2022-07-29T15:31:49;30.60;57.10
18682;DHT22;9471;51.168;4.154;2022-07-29T15:34:17;30.40;57.20
18682;DHT22;9471;51.168;4.154;2022-07-29T15:36:46;30.20;57.70
18682;DHT22;9471;51.168;4.154;2022-07-29T15:39:13;30.40;58.00
18682;DHT22;9471;51.168;4.154;2022-07-29T15:41:42;30.40;57.50
18682;DHT22;9471;51.168;4.154;2022-07-29T15:44:09;30.60;57.30
18682;DHT22;9471;51.168;4.154;2022-07-29T15:46:36;30.80;56.80
18682;DHT22;9471;51.168;4.154;2022-07-29T15:49:22;30.70;56.40
18682;DHT22;9471;51.168;4.154;2022-07-29T15:51:56;31.00;56.40
18682;DHT22;9471;51.168;4.154;2022-07-29T15:54:23;31.20;55.80
18682;DHT22;9471;51.168;4.154;2022-07-29T15:56:50;31.20;55.60
18682;DHT22;9471;51.168;4.154;2022-07-29T15:59:17;31.20;56.00
18682;DHT22;9471;51.168;4.154;2022-07-29T16:01:44;31.30;56.20
18682;DHT22;9471;51.168;4.154;2022-07-29T16:04:11;31.20;55.80
18682;DHT22;9471;51.168;4.154;2022-07-29T16:06:40;30.80;56.30